AirNav   Everest Fuels
 
 516 users online  

55CA Stanford Health Care-Valleycare Heliport
Pleasanton, California, USA

GOING TO PLEASANTON?


FAA INFORMATION EFFECTIVE 10 SEPTEMBER 2020

Location

FAA Identifier: 55CA
Lat/Long: 37-41-39.8900N 121-52-51.2300W
37-41.664833N 121-52.853833W
37.6944139,-121.8808972
(estimated)
Elevation: 422 ft. / 129 m (estimated)
From city: 2 miles N of PLEASANTON, CA
Time zone: UTC -7 (UTC -8 during Standard Time)
Zip code: 94588

Heliport Operations

Heliport use: Private use. Permission required prior to landing
Activation date: 10/2019
Control tower: no
ARTCC: OAKLAND CENTER
FSS: OAKLAND FLIGHT SERVICE STATION
Attendance: 
Wind indicator: no
Segmented circle: no
Lights: SS-SR

Heliport Communications

WX ASOS at LVK (2.9 nm E): PHONE 925-606-5412
WX ASOS at HWD (12 nm W): PHONE 510-786-3052
WX AWOS-3 at C83 (15 nm NE): 123.775 (925-634-0906)
WX ASOS at OAK (16 nm W): PHONE 510-214-1776
WX AWOS-3PT at NUQ (19 nm SW): 124.175 (650-386-0655)
WX ASOS at CCR (20 nm NW): PHONE 925-689-2077

Nearby radio navigation aids

VOR radial/distance  VOR name  Freq  Var
OAKr080/16.4OAKLAND VOR/DME116.8017E
SJCr353/19.4SAN JOSE VOR/DME114.1016E
CCRr143/22.4CONCORD VOR/DME117.0017E
SFOr062/23.8SAN FRANCISCO VOR/DME115.8017E
OSIr029/26.3WOODSIDE VOR/DME113.9017E
SAUr091/31.9SAUSALITO VOR/DME116.2017E
SGDr124/37.3SCAGGS ISLAND VORTAC112.1017E

Heliport Services

Runway Information

Helipad H1

Dimensions: 64 x 64 ft. / 20 x 20 m
Surface: asphalt/concrete
Latitude: 37-41.664833N
Longitude: 121-52.853833W
Elevation: 422.0 ft.
Traffic pattern: leftleft
Approach lights: ODALS: omnidirectional approach lighting system

Heliport Ownership and Management from official FAA records

Ownership: Privately-owned
Owner: THE HOSPITAL COMMITTEE FOR PLEASANT
5555 WEST POSITAS BLVD
PLEASANTON, CA 95588
Phone 925-847-3000
THE HOSPITAL COMMITTEE FOR LIVERMORE-PLEASANTON AREAS DBA STANFORD HEALTH CARE-VALLEYCARE
Manager: LARRY MELIM
5555 WEST POSITAS BLVD
PLEASANTON, CA 95588
Phone 925-734-3361

Heliport Operational Statistics

Aircraft based on the field: 1
Helicopters: 1
    

Instrument Procedures

There are no published instrument procedures at 55CA.

Some nearby airports with instrument procedures:

KLVK - Livermore Municipal Airport (3 nm E)
KHWD - Hayward Executive Airport (12 nm W)
C83 - Byron Airport (15 nm NE)
KOAK - Metropolitan Oakland International Airport (16 nm W)
KPAO - Palo Alto Airport (18 nm SW)
KNUQ - Moffett Federal Airfield (19 nm SW)
KCCR - Buchanan Field Airport (20 nm NW)
 
Loc | Ops | Rwys | IFR | FBO | Links
Com | Nav | Svcs | Stats | Notes
Aerial photo
No photo
 
Airport distance calculator
Flying to Stanford Health Care-Valleycare Heliport? Find the distance to fly.

From to 55CA

Sunrise and sunset
Times for 21-Sep-2020
 Local
(UTC-7)
 Zulu
(UTC)
Morning civil twilight06:3013:30
Sunrise06:5613:56
Sunset19:0402:04
Evening civil twilight19:3002:30

Current date and time
Zulu (UTC)  22-Sep-2020 05:45:40
Local (UTC-7)  21-Sep-2020 22:45:40
 
METAR
KLVK 
3nm E 
220453Z 30009KT 10SM CLR 17/13 A2994 RMK AO2 SLP135 T01720133
KHWD 
11nm W 
220454Z 25006KT 10SM CLR 18/13 A2996 RMK AO2 SLP153 T01830133
KC83 
15nm NE 
220535Z AUTO 25021KT 10SM CLR 20/12 A2989 RMK AO2
KOAK 
16nm W 
220453Z 29009KT 10SM FEW013 SCT170 18/14 A2996 RMK AO2 SLP144 T01830139
KPAO 
18nm SW 
220147Z 32014KT 10SM FEW020 20/12 A2992 RMK LAST
KNUQ 
18nm SW 
211355Z AUTO 00000KT 9SM CLR 15/13 A2991 RMK AO2
KSJC 
20nm S 
220453Z 00000KT 10SM SCT032 SCT100 19/13 A2996 RMK AO2 SLP145 FU SCT032 T01890128
TAF
KLVK 
3nm E 
211730Z 2118/2218 VRB04KT P6SM SKC FM212100 28011KT P6SM SKC FM220300 28005KT P6SM SKC FM220600 28003KT P6SM SCT200 FM221600 28004KT P6SM SKC
KOAK 
16nm W 
211730Z 2118/2224 VRB05KT P6SM FEW006 FEW012 FM212100 29011KT P6SM SKC FM220400 27005KT P6SM SCT015 FM220600 27005KT P6SM BKN010 FM221600 VRB04KT P6SM FEW009 SCT015
KSJC 
20nm S 
211730Z 2118/2218 VRB04KT P6SM SKC FM212000 32012KT P6SM SKC FM220400 VRB05KT P6SM SKC FM220600 VRB04KT P6SM FEW010 SCT200 FM221300 VRB03KT P6SM SCT012 FM221600 VRB04KT P6SM SKC
NOTAMs
Click for the latest NOTAMs
NOTAMs are issued by the DoD/FAA and will open in a separate window not controlled by AirNav.

 

 
 

Would you like to see your business listed on this page?

 If your business provides an interesting product or service to pilots, flight crews, aircraft, or users of the Stanford Health Care-Valleycare Heliport, you should consider listing it here.  To start the listing process, click on the button below
 
Add a business
 

Other Pages about Stanford Health Care-Valleycare Heliport

Update a link
 
Copyright © AirNav, LLC. All rights reserved. Privacy Policy  Contact